Latest  Newer  Older  Last 2 hours slideshow  Last 24 hours slideshow  Refresh every 5 minutes 
Current image  Latest image  Rain/snow radar  Cloud coverage sat images 

All time is UTC (add 2 hours to UTC in wintertime, 3 hours to UTC in DST for Latvia local time)

2018/07/19 05:20 EVRA 190520Z 05003KT 320V100 CAVOK 21/16 Q1009 NOSIG
2018/07/19 05:20 EVLA 190520Z AUTO 00000KT 9999 NCD 24/17 Q1009
2018/07/19 05:20 EVVA 190520Z AUTO 05004KT CAVOK 23/19 Q1010
2018/07/19 05:20 EYKA 190520Z 01005KT 340V050 CAVOK 20/16 Q1007
2018/07/19 05:20 EYPA 190520Z 06005KT 030V090 CAVOK 22/16 Q1009
2018/07/19 05:20 EYSA 190520Z 07004KT 040V110 CAVOK 21/16 Q1009 BLU NOSIG
2018/07/19 05:20 EYVI 190520Z 01006KT 340V040 CAVOK 20/16 Q1007 NOSIG
2018/07/19 04:50 EEKA 190450Z 03005KT CAVOK 18/15 Q1012
2018/07/19 04:50 EEKE 190450Z 04006KT CAVOK 21/16 Q1011
2018/07/19 04:50 EEPU 190450Z 06004KT 030V110 CAVOK 20/16 Q1011
2018/07/19 05:20 EETN 190520Z 07010KT CAVOK 22/16 Q1012 NOSIG
2018/07/19 04:50 EETU 190450Z AUTO 02006KT 9999 NCD 21/15 Q1010
   RIGA AIRPORT     EVRA               56 55N  023 58E   10   X     T          6 LV
   LIEPAJA INTL     EVLA        26406  56 31N  021 06E    4   X                8 LV
   VENTPILS         EVVA               57 21N  021 33E    6   X                8 LV
   KAUNAS           EYKA               54 54N  023 55E   77   X     T          6 LT
   PALANGA INTL     EYPA               55 55N  021 03E   10   X                6 LT
   SIAULIAI INTL    EYSA               55 54N  023 24E  135   X     T          6 LT
   VILNIUS INTL     EYVI        26730  54 38N  025 17E  197   X     T          6 LT
   KARDLA           EEKA        26116  58 59N  022 50E    4   X                8 EE
   KURESSAARE       EEKE               58 14N  022 31E    4   X                8 EE
   PARNU            EEPU               58 25N  024 28E   14   X                8 EE
   TALLINN          EETN        26038  59 24N  024 49E   40   X     T          8 EE
   TARTU            EETU               58 19N  026 41E   67   X                8 EE